Flight Track Log - Related Links

Times and Time Zones

All times are in EDT time to prevent confusion due to time zone crossing. See the N860BA flight status page for this flight to view local times or setup timezone preferences in your user account.

Time Position Orientation Groundspeed Altitude Reporting Facility
EDT Latitude Longitude Course Direction KTS MPH feet Rate Location/Type
Sat 12:48:29 PM 33.9150 -116.4972 59° Northeast 221 254 37,000  Level Los Angeles Center
Sat 12:49:32 PM 33.9386 -116.4119 72° East 229 264 8,800 -12,432 Descending Los Angeles Center
Sat 12:50:34 PM 33.9617 -116.3236 73° East 247 284 11,100 1,588 Climbing Los Angeles Center
Sat 12:51:48 PM 33.9883 -116.2236 72° East 309 356 12,400 1,191 Climbing Los Angeles Center
Sat 12:52:00 PM 34.1359 -115.6949 59° Northeast  Level FlightAware Approximate
Sat 12:52:50 PM 34.0283 -116.0800 71° East 374 430 13,800  Level Los Angeles Center
Sat 12:53:00 PM 34.2001 -115.5665 59° Northeast  Level FlightAware Approximate
Sat 12:53:52 PM 34.0653 -115.9453 72° East 416 479 14,900  Level Los Angeles Center
Sat 12:54:54 PM 34.1031 -115.8022 72° East 442 509 16,100 1,104 Climbing Los Angeles Center
Sat 12:55:57 PM 34.1639 -115.6667 61° Northeast 457 526 17,200 1,248 Climbing Los Angeles Center
Sat 12:56:59 PM 34.2483 -115.5039 58° Northeast 476 548 18,700 1,258 Climbing Los Angeles Center
Sat 12:58:01 PM 34.3186 -115.3658 58° Northeast 482 555 19,800 1,113 Climbing Los Angeles Center
Sat 12:59:03 PM 34.3944 -115.2181 58° Northeast 489 563 21,000 964 Climbing Los Angeles Center
Sat 01:00:18 PM 34.4661 -115.0767 58° Northeast 492 566 22,000 1,007 Climbing Los Angeles Center
Sat 01:01:20 PM 34.5522 -114.9047 59° Northeast 497 572 23,300 1,113 Climbing Los Angeles Center
Sat 01:02:22 PM 34.6208 -114.7667 59° Northeast 501 577 24,300 968 Climbing Los Angeles Center
Sat 01:03:24 PM 34.6961 -114.6147 59° Northeast 501 577 25,300 919 Climbing Los Angeles Center
Sat 01:04:26 PM 34.7769 -114.4314 62° Northeast 509 586 26,200 780 Climbing Los Angeles Center
Sat 01:05:27 PM 34.8428 -114.2775 62° Northeast 512 589 26,900 732 Climbing Los Angeles Center
Sat 01:06:29 PM 34.9086 -114.1231 63° Northeast 515 593 27,700 774 Climbing Los Angeles Center
Sat 01:07:31 PM 34.9775 -113.9733 61° Northeast 511 588 28,500 726 Climbing Los Angeles Center
Sat 01:08:33 PM 35.0917 -113.8794 34° Northeast 520 598 29,200 823 Climbing Los Angeles Center
Sat 01:09:35 PM 35.2292 -113.7669 34° Northeast 499 574 30,200 823 Climbing Los Angeles Center
Sat 01:10:37 PM 35.3358 -113.6547 41° Northeast 514 592 30,900 726 Climbing Los Angeles Center
Sat 01:11:39 PM 35.4047 -113.5033 61° Northeast 512 589 31,700 774 Climbing Los Angeles Center
Sat 01:12:41 PM 35.4675 -113.3467 64° Northeast 513 590 32,500 701 Climbing Los Angeles Center
Sat 01:13:56 PM 35.5328 -113.1831 64° Northeast 515 593 33,300 745 Climbing Los Angeles Center
Sat 01:14:58 PM 35.6069 -112.9975 64° Northeast 509 586 34,200 634 Climbing Los Angeles Center
Sat 01:15:59 PM 35.6644 -112.8514 64° Northeast 513 590 34,600 435 Climbing Los Angeles Center
Sat 01:17:02 PM 35.7339 -112.6781 64° Northeast 519 597 35,100 528 Climbing Los Angeles Center
Sat 01:18:04 PM 35.8086 -112.4875 64° Northeast 517 595 35,700 484 Climbing Los Angeles Center
Sat 01:19:06 PM 35.8706 -112.3286 64° Northeast 516 594 36,100 435 Climbing Los Angeles Center
Sat 01:20:08 PM 35.9319 -112.1722 64° Northeast 511 588 36,600 435 Climbing Los Angeles Center
Sat 01:21:10 PM 35.9922 -112.0125 65° Northeast 515 593 37,000 194 Climbing Los Angeles Center
Sat 01:22:12 PM 36.0597 -111.8383 64° Northeast 513 590 37,000  Level Los Angeles Center
Sat 01:22:31 PM 36.0847 -111.7761 64° Northeast 514 592 37,000  Level Denver Center
Sat 01:23:33 PM 36.1464 -111.6128 65° Northeast 523 602 37,000  Level Denver Center
Sat 01:24:35 PM 36.2092 -111.4503 64° Northeast 526 605 37,000  Level Denver Center
Sat 01:25:37 PM 36.2703 -111.2875 65° Northeast 524 603 37,000  Level Denver Center
Sat 01:26:51 PM 36.3328 -111.1250 64° Northeast 526 605 37,000  Level Denver Center
Sat 01:27:53 PM 36.4056 -110.9306 65° Northeast 521 600 37,000  Level Denver Center
Sat 01:28:55 PM 36.4772 -110.7369 65° Northeast 518 596 37,000  Level Denver Center
Sat 01:29:57 PM 36.5381 -110.5761 65° Northeast 517 595 37,000  Level Denver Center
Sat 01:30:59 PM 36.5953 -110.4167 66° East 512 589 37,000  Level Denver Center
Sat 01:32:01 PM 36.6542 -110.2542 66° East 515 593 37,000  Level Denver Center
Sat 01:33:15 PM 36.7178 -110.0819 65° Northeast 513 590 37,000  Level Denver Center
Sat 01:34:17 PM 36.7925 -109.8742 66° East 513 590 37,000  Level Denver Center
Sat 01:35:19 PM 36.8486 -109.7167 66° East 517 595 37,000  Level Denver Center
Sat 01:36:20 PM 36.9147 -109.5347 66° East 514 592 37,000  Level Denver Center
Sat 01:37:22 PM 36.9703 -109.3769 66° East 515 593 37,000  Level Denver Center
Sat 01:38:24 PM 37.0264 -109.2186 66° East 517 595 37,000  Level Denver Center
Sat 01:39:26 PM 37.0914 -109.0325 66° East 519 597 37,000  Level Denver Center
Sat 01:40:28 PM 37.1472 -108.8728 66° East 521 600 37,000  Level Denver Center
Sat 01:41:30 PM 37.2117 -108.6881 66° East 519 597 37,000  Level Denver Center
Sat 01:42:43 PM 37.2669 -108.5261 67° East 523 602 37,000  Level Denver Center
Sat 01:43:58 PM 37.3400 -108.3144 66° East 521 600 37,000  Level Denver Center
Sat 01:45:00 PM 37.4139 -108.1003 66° East 521 600 37,000  Level Denver Center
Sat 01:46:02 PM 37.4683 -107.9383 67° East 524 603 37,000  Level Denver Center
Sat 01:47:04 PM 37.5236 -107.7783 66° East 522 601 37,000  Level Denver Center
Sat 01:48:05 PM 37.5869 -107.5881 67° East 525 604 37,000  Level Denver Center
Sat 01:49:07 PM 37.6411 -107.4256 67° East 525 604 37,000  Level Denver Center
Sat 01:50:21 PM 37.7036 -107.2339 68° East 527 606 37,000  Level Denver Center
Sat 01:51:23 PM 37.7756 -107.0161 67° East 526 605 37,000  Level Denver Center
Sat 01:52:25 PM 37.8303 -106.8497 67° East 527 606 37,000  Level Denver Center
Sat 01:53:27 PM 37.8836 -106.6853 68° East 528 608 37,000  Level Denver Center
Sat 01:54:29 PM 37.9425 -106.4989 68° East 528 608 37,000  Level Denver Center
Sat 01:55:43 PM 37.9969 -106.3333 67° East 530 610 37,000  Level Denver Center
Sat 01:56:45 PM 38.0669 -106.1128 68° East 529 609 37,000  Level Denver Center
Sat 01:57:46 PM 38.1106 -105.9756 68° East 526 605 37,000  Level Denver Center
Sat 01:58:48 PM 38.1803 -105.7536 68° East 529 609 37,000  Level Denver Center
Sat 01:59:50 PM 38.2319 -105.5878 68° East 526 605 37,000  Level Denver Center
Sat 02:00:52 PM 38.2919 -105.3933 68° East 529 609 37,000  Level Denver Center
Sat 02:01:54 PM 38.3433 -105.2272 68° East 527 606 37,000  Level Denver Center
Sat 02:02:55 PM 38.3964 -105.0536 69° East 528 608 37,000  Level Denver Center
Sat 02:03:57 PM 38.4583 -104.8497 69° East 525 604 37,000  Level Denver Center
Sat 02:05:11 PM 38.5122 -104.6733 69° East 529 609 37,000  Level Denver Center
Sat 02:06:13 PM 38.5731 -104.4694 69° East 525 604 37,000  Level Denver Center
Sat 02:07:15 PM 38.6253 -104.2958 69° East 521 600 37,000  Level Denver Center
Sat 02:08:16 PM 38.6797 -104.1119 69° East 524 603 37,000  Level Denver Center
Sat 02:09:18 PM 38.7286 -103.9469 69° East 518 596 37,000  Level Denver Center
Sat 02:10:32 PM 38.7850 -103.7536 69° East 517 595 37,000  Level Denver Center
Sat 02:11:34 PM 38.8461 -103.5442 69° East 512 589 37,000  Level Denver Center
Sat 02:12:36 PM 38.8950 -103.3739 70° East 507 583 37,000  Level Denver Center
Sat 02:13:37 PM 38.9428 -103.2094 69° East 491 565 37,000  Level Denver Center
Sat 02:14:39 PM 38.9894 -103.0456 70° East 486 559 37,000  Level Denver Center
Sat 02:15:52 PM 39.0342 -102.8839 70° East 478 550 37,000  Level Denver Center
Sat 02:16:54 PM 39.0936 -102.6714 70° East 473 544 37,000  Level Denver Center
Sat 02:17:56 PM 39.1358 -102.5186 70° East 471 542 37,000  Level Denver Center
Sat 02:18:58 PM 39.1850 -102.3417 70° East 470 541 37,000  Level Denver Center
Sat 02:19:59 PM 39.2269 -102.1906 70° East 468 539 37,000  Level Denver Center
Sat 02:21:01 PM 39.2683 -102.0386 71° East 469 540 37,000  Level Denver Center
Sat 02:22:02 PM 39.3167 -101.8619 70° East 468 539 37,000  Level Denver Center
Sat 02:23:04 PM 39.3569 -101.7125 71° East 470 541 37,000  Level Denver Center
Sat 02:24:06 PM 39.4056 -101.5344 70° East 470 541 37,000  Level Denver Center
Sat 02:25:07 PM 39.4458 -101.3803 71° East 472 543 37,000  Level Denver Center
Sat 02:26:09 PM 39.4931 -101.2019 71° East 471 542 37,000  Level Denver Center
Sat 02:27:22 PM 39.5336 -101.0492 71° East 470 541 37,000  Level Denver Center
Sat 02:28:24 PM 39.5872 -100.8425 71° East 475 547 37,000  Level Denver Center
Sat 02:29:26 PM 39.6267 -100.6917 71° East 467 537 37,000  Level Denver Center
Sat 02:30:27 PM 39.6728 -100.5125 71° East 469 540 37,000  Level Denver Center
Sat 02:31:29 PM 39.7119 -100.3619 71° East 464 534 37,000  Level Denver Center
Sat 02:32:30 PM 39.7561 -100.1867 72° East 460 529 37,000  Level Denver Center
Sat 02:33:32 PM 39.7956 -100.0303 72° East 462 532 37,000  Level Denver Center
Sat 02:34:34 PM 39.8356 -99.8697 72° East 466 536 37,000  Level Denver Center
Sat 02:35:35 PM 39.8753 -99.7122 72° East 461 531 37,000  Level Denver Center
Sat 02:36:36 PM 39.9058 -99.5856 73° East 461 531 37,000  Level Denver Center
Sat 02:37:38 PM 39.9528 -99.3986 72° East 453 521 37,000  Level Denver Center
Sat 02:38:40 PM 39.9917 -99.2406 72° East 458 527 37,000  Level Denver Center
Sat 02:39:41 PM 40.0300 -99.0850 72° East 452 520 37,000  Level Denver Center
Sat 02:40:43 PM 40.0744 -98.8975 73° East 451 519 37,000  Level Denver Center
Sat 02:41:17 PM 40.0892 -98.8364 73° East 451 519 37,000  Level Minneapolis Center
Sat 02:42:19 PM 40.1347 -98.6536 72° East 446 513 37,000  Level Minneapolis Center
Sat 02:43:20 PM 40.1781 -98.5047 69° East 442 509 37,000  Level Minneapolis Center
Sat 02:44:22 PM 40.2217 -98.3542 69° East 443 510 37,000  Level Minneapolis Center
Sat 02:45:24 PM 40.2642 -98.2028 70° East 444 511 37,000  Level Minneapolis Center
Sat 02:46:25 PM 40.3064 -98.0531 70° East 441 507 37,000  Level Minneapolis Center
Sat 02:47:27 PM 40.3478 -97.9008 70° East 443 510 37,000  Level Minneapolis Center
Sat 02:48:28 PM 40.3906 -97.7511 69° East 442 509 37,000  Level Minneapolis Center
Sat 02:49:30 PM 40.4406 -97.5681 70° East 444 511 37,000  Level Minneapolis Center
Sat 02:50:32 PM 40.4828 -97.4150 70° East 446 513 37,000  Level Minneapolis Center
Sat 02:51:33 PM 40.5206 -97.2758 70° East 444 511 37,000  Level Minneapolis Center
Sat 02:52:35 PM 40.5625 -97.1211 70° East 447 514 37,000  Level Minneapolis Center
Sat 02:53:37 PM 40.6047 -96.9669 70° East 449 517 37,000  Level Minneapolis Center
Sat 02:54:38 PM 40.6539 -96.7819 71° East 448 516 37,000  Level Minneapolis Center
Sat 02:55:40 PM 40.6950 -96.6275 71° East 448 516 37,000  Level Minneapolis Center
Sat 02:56:42 PM 40.7353 -96.4725 71° East 449 517 37,000  Level Minneapolis Center
Sat 02:57:43 PM 40.7756 -96.3203 71° East 445 512 37,000  Level Minneapolis Center
Sat 02:58:45 PM 40.8150 -96.1664 71° East 445 512 37,000  Level Minneapolis Center
Sat 02:59:46 PM 40.8553 -96.0125 71° East 446 513 37,000  Level Minneapolis Center
Sat 03:00:49 PM 40.9028 -95.8286 71° East 445 512 37,000  Level Minneapolis Center
Sat 03:01:51 PM 40.9417 -95.6764 71° East 443 510 37,000  Level Minneapolis Center
Sat 03:02:52 PM 40.9808 -95.5219 71° East 444 511 37,000  Level Minneapolis Center
Sat 03:03:53 PM 41.0200 -95.3692 71° East 443 510 37,000  Level Minneapolis Center
Sat 03:04:55 PM 41.0583 -95.2172 71° East 440 506 37,000  Level Minneapolis Center
Sat 03:05:56 PM 41.0958 -95.0633 72° East 439 505 37,000  Level Minneapolis Center
Sat 03:07:10 PM 41.1347 -94.9106 71° East 439 505 37,000  Level Minneapolis Center
Sat 03:08:12 PM 41.1861 -94.6953 72° East 438 504 37,000 -49 Level Minneapolis Center
Sat 03:09:13 PM 41.2242 -94.5417 72° East 440 506 36,900  Descending Minneapolis Center
Sat 03:10:15 PM 41.2608 -94.3875 72° East 438 504 37,000 49 Climbing Minneapolis Center
Sat 03:11:16 PM 41.2983 -94.2336 72° East 438 504 37,000  Level Minneapolis Center
Sat 03:12:18 PM 41.3361 -94.0753 72° East 440 506 37,000  Level Minneapolis Center
Sat 03:13:19 PM 41.3731 -93.9231 72° East 437 503 37,000  Level Minneapolis Center
Sat 03:14:21 PM 41.4097 -93.7686 72° East 438 504 37,000  Level Minneapolis Center
Sat 03:15:22 PM 41.4447 -93.6125 73° East 440 506 37,000  Level Minneapolis Center
Sat 03:16:23 PM 41.4678 -93.4850 76° East 442 509 37,000  Level Minneapolis Center
Sat 03:17:25 PM 41.5050 -93.2633 77° East 441 507 37,000 -244 Level Minneapolis Center
Sat 03:18:26 PM 41.5331 -93.1028 77° East 443 510 36,500 -878 Descending Minneapolis Center
Sat 03:19:28 PM 41.5592 -92.9464 77° East 439 505 35,200 -1,171 Descending Minneapolis Center
Sat 03:20:29 PM 41.5844 -92.7944 77° East 429 494 34,100 -1,082 Descending Minneapolis Center
Sat 03:21:30 PM 41.6106 -92.6453 77° East 420 483 33,000 -976 Descending Minneapolis Center
Sat 03:22:32 PM 41.6342 -92.4983 78° East 412 474 32,100 -780 Descending Minneapolis Center
Sat 03:23:33 PM 41.6581 -92.3514 78° East 409 471 31,400 -711 Descending Minneapolis Center
Sat 03:23:48 PM 41.6636 -92.3172 78° East 408 470 31,200 -316 Descending Chicago Center
Sat 03:24:49 PM 41.6931 -92.1358 78° East 418 481 31,000 -98 Descending Chicago Center
Sat 03:25:51 PM 41.7181 -91.9781 78° East 432 497 31,000  Level Chicago Center
Sat 03:26:53 PM 41.7433 -91.8194 78° East 438 504 31,000  Level Chicago Center
Sat 03:27:55 PM 41.7683 -91.6608 78° East 440 506 31,000  Level Chicago Center
Sat 03:28:57 PM 41.7939 -91.5028 78° East 440 506 31,000  Level Chicago Center
Sat 03:29:59 PM 41.8233 -91.3100 78° East 444 511 31,000 -532 Level Chicago Center
Sat 03:31:01 PM 41.8467 -91.1553 79° East 434 499 29,900 -1,317 Descending Chicago Center
Sat 03:32:02 PM 41.8708 -90.9989 78° East 433 498 28,300 -1,610 Descending Chicago Center
Sat 03:33:04 PM 41.8947 -90.8364 79° East 448 516 26,600 -1,597 Descending Chicago Center
Sat 03:34:06 PM 41.9194 -90.6731 78° East 452 520 25,000 -1,742 Descending Chicago Center
Sat 03:35:08 PM 41.9522 -90.4792 77° East 451 519 23,000 -2,032 Descending Chicago Center
Sat 03:36:10 PM 41.9892 -90.3178 73° East 456 525 20,800 -2,293 Descending Chicago Center
Sat 03:37:11 PM 42.0239 -90.1564 74° East 455 524 18,300 -2,537 Descending Chicago Center
Sat 03:38:13 PM 42.0586 -90.0008 73° East 440 506 15,600 -2,565 Descending Chicago Center
Sat 03:39:15 PM 42.0886 -89.8514 75° East 393 452 13,000 -2,516 Descending Chicago Center
Sat 03:40:17 PM 42.1167 -89.7203 74° East 371 427 10,400 -1,452 Descending Chicago Center
Sat 03:41:19 PM 42.1422 -89.5961 74° East 349 402 10,000 -195 Descending Chicago Center
Sat 03:42:20 PM 42.1731 -89.4467 74° East 352 405 10,000 -49 Level Chicago Center
Sat 03:43:22 PM 42.1992 -89.3208 74° East 351 404 9,900 -435 Descending Chicago Center
Sat 03:44:24 PM 42.2217 -89.2158 74° East 304 350 9,100 -732 Descending Chicago Center
Sat 03:45:25 PM 42.2422 -89.1186 74° East 281 323 8,400 -634 Descending Chicago Center
Sat 03:46:27 PM 42.2639 -89.0225 73° East 271 312 7,800 -629 Descending Chicago Center
Sat 03:47:29 PM 42.2850 -88.9211 74° East 278 320 7,100 -677 Descending Chicago Center
Sat 03:48:31 PM 42.3092 -88.8114 73° East 275 316 6,400 -683 Descending Chicago Center
Sat 03:49:32 PM 42.3294 -88.7117 75° East 275 316 5,700 -683 Descending Chicago Center
Sat 03:50:34 PM 42.3519 -88.6056 74° East 279 321 5,000 -339 Descending Chicago Center
Sat 03:51:36 PM 42.3717 -88.5089 75° East 272 313 5,000 -49 Level Chicago Center
Sat 03:52:37 PM 42.3517 -88.4275 108° East 242 278 4,900 -49 Descending Chicago Center
Sat 03:53:39 PM 42.3222 -88.3358 113° Southeast 236 272 4,900 -339 Level Chicago Center
Sat 03:54:41 PM 42.2947 -88.2483 113° Southeast 246 283 4,200 -532 Descending Chicago Center
Sat 03:55:43 PM 42.2664 -88.1608 114° Southeast 252 290 3,800 -871 Descending Chicago Center
Sat 03:56:45 PM 42.2403 -88.0700 111° Southeast 256 295 2,400 -683 Descending Chicago Center
Sat 03:57:46 PM 42.2122 -87.9881 115° Southeast 253 291 2,400 -98 Level Chicago Center
Sat 03:58:48 PM 42.1781 -87.9378 133° Southeast 222 255 2,200 -290 Descending Chicago Center
Sat 03:59:50 PM 42.1358 -87.9128 156° South 196 226 1,800 -387 Descending Chicago Center
Sat 04:01:00 PM 42.1143 -87.9015 132° Southeast  Level Estimated

Login

Don't have an account? Register now (free) for customized features, flight alerts, and more!